sensor_id;sensor_type;location;lat;lon;timestamp;pressure;altitude;pressure_sealevel;temperature;humidity
9746;BME280;4912;50.836;12.958;2023-04-03T00:00:28;98778.56;;;5.26;66.05
9746;BME280;4912;50.836;12.958;2023-04-03T00:02:59;98776.69;;;5.20;65.89
9746;BME280;4912;50.836;12.958;2023-04-03T00:05:30;98774.00;;;5.13;66.32
9746;BME280;4912;50.836;12.958;2023-04-03T00:08:00;98782.28;;;5.09;65.38
9746;BME280;4912;50.836;12.958;2023-04-03T00:10:37;98778.03;;;5.01;65.44
9746;BME280;4912;50.836;12.958;2023-04-03T00:13:08;98775.41;;;4.94;65.31
9746;BME280;4912;50.836;12.958;2023-04-03T00:15:39;98781.69;;;4.91;65.66
9746;BME280;4912;50.836;12.958;2023-04-03T00:18:10;98776.59;;;4.89;65.68
9746;BME280;4912;50.836;12.958;2023-04-03T00:20:40;98781.72;;;4.87;65.94
9746;BME280;4912;50.836;12.958;2023-04-03T00:23:11;98781.34;;;4.85;66.11
9746;BME280;4912;50.836;12.958;2023-04-03T00:25:44;98772.72;;;4.83;66.22
9746;BME280;4912;50.836;12.958;2023-04-03T00:28:15;98780.22;;;4.83;66.20
9746;BME280;4912;50.836;12.958;2023-04-03T00:30:46;98780.22;;;4.79;65.65
9746;BME280;4912;50.836;12.958;2023-04-03T00:33:16;98782.97;;;4.79;65.82
9746;BME280;4912;50.836;12.958;2023-04-03T00:35:49;98775.19;;;4.74;66.04
9746;BME280;4912;50.836;12.958;2023-04-03T00:38:19;98778.75;;;4.68;65.63
9746;BME280;4912;50.836;12.958;2023-04-03T00:40:53;98777.56;;;4.69;65.75
9746;BME280;4912;50.836;12.958;2023-04-03T00:43:25;98781.53;;;4.64;65.57
9746;BME280;4912;50.836;12.958;2023-04-03T00:45:57;98784.72;;;4.59;65.39
9746;BME280;4912;50.836;12.958;2023-04-03T00:48:30;98789.03;;;4.57;65.35
9746;BME280;4912;50.836;12.958;2023-04-03T00:51:02;98791.38;;;4.58;65.23
9746;BME280;4912;50.836;12.958;2023-04-03T00:53:38;98793.34;;;4.54;65.25
9746;BME280;4912;50.836;12.958;2023-04-03T00:56:15;98788.28;;;4.49;66.30
9746;BME280;4912;50.836;12.958;2023-04-03T00:58:51;98794.94;;;4.51;65.71
9746;BME280;4912;50.836;12.958;2023-04-03T01:01:26;98797.69;;;4.51;65.03
9746;BME280;4912;50.836;12.958;2023-04-03T01:03:58;98791.81;;;4.53;65.36
9746;BME280;4912;50.836;12.958;2023-04-03T01:06:33;98789.47;;;4.51;64.38
9746;BME280;4912;50.836;12.958;2023-04-03T01:09:07;98793.41;;;4.47;64.50
9746;BME280;4912;50.836;12.958;2023-04-03T01:11:40;98788.72;;;4.44;64.36
9746;BME280;4912;50.836;12.958;2023-04-03T01:14:11;98796.59;;;4.38;64.10
9746;BME280;4912;50.836;12.958;2023-04-03T01:16:42;98795.81;;;4.38;64.02
9746;BME280;4912;50.836;12.958;2023-04-03T01:19:15;98794.25;;;4.40;64.68
9746;BME280;4912;50.836;12.958;2023-04-03T01:22:15;98798.56;;;4.41;64.70
9746;BME280;4912;50.836;12.958;2023-04-03T01:24:49;98797.34;;;4.42;64.72
9746;BME280;4912;50.836;12.958;2023-04-03T01:27:23;98788.72;;;4.44;64.67
9746;BME280;4912;50.836;12.958;2023-04-03T01:29:54;98802.47;;;4.40;64.38
9746;BME280;4912;50.836;12.958;2023-04-03T01:32:31;98812.66;;;4.40;64.52
9746;BME280;4912;50.836;12.958;2023-04-03T01:35:02;98809.91;;;4.40;65.11
9746;BME280;4912;50.836;12.958;2023-04-03T01:37:33;98809.09;;;4.43;65.28
9746;BME280;4912;50.836;12.958;2023-04-03T01:40:05;98806.00;;;4.41;65.31
9746;BME280;4912;50.836;12.958;2023-04-03T01:42:37;98810.25;;;4.42;65.34
9746;BME280;4912;50.836;12.958;2023-04-03T01:45:09;98809.09;;;4.43;64.94
9746;BME280;4912;50.836;12.958;2023-04-03T01:47:42;98813.03;;;4.38;65.10
9746;BME280;4912;50.836;12.958;2023-04-03T01:50:13;98810.69;;;4.37;64.79
9746;BME280;4912;50.836;12.958;2023-04-03T01:52:44;98812.69;;;4.33;64.85
9746;BME280;4912;50.836;12.958;2023-04-03T01:55:15;98813.06;;;4.35;64.90
9746;BME280;4912;50.836;12.958;2023-04-03T01:57:46;98812.34;;;4.27;64.57
9746;BME280;4912;50.836;12.958;2023-04-03T02:00:17;98810.81;;;4.19;64.39
9746;BME280;4912;50.836;12.958;2023-04-03T02:02:52;98821.38;;;4.21;64.54
9746;BME280;4912;50.836;12.958;2023-04-03T02:05:25;98806.53;;;4.18;64.69
9746;BME280;4912;50.836;12.958;2023-04-03T02:07:55;98812.78;;;4.15;64.84
9746;BME280;4912;50.836;12.958;2023-04-03T02:10:26;98811.63;;;4.16;64.64
9746;BME280;4912;50.836;12.958;2023-04-03T02:12:56;98817.50;;;4.15;64.74
9746;BME280;4912;50.836;12.958;2023-04-03T02:15:27;98814.78;;;4.11;64.94
9746;BME280;4912;50.836;12.958;2023-04-03T02:18:00;98816.81;;;4.00;65.05
9746;BME280;4912;50.836;12.958;2023-04-03T02:20:33;98808.59;;;3.96;65.03
9746;BME280;4912;50.836;12.958;2023-04-03T02:23:05;98811.72;;;3.95;65.00
9746;BME280;4912;50.836;12.958;2023-04-03T02:25:35;98808.25;;;3.87;65.04
9746;BME280;4912;50.836;12.958;2023-04-03T02:28:07;98811.03;;;3.80;65.27
9746;BME280;4912;50.836;12.958;2023-04-03T02:30:37;98816.91;;;3.75;65.70
9746;BME280;4912;50.836;12.958;2023-04-03T02:33:10;98821.59;;;3.75;65.58
9746;BME280;4912;50.836;12.958;2023-04-03T02:35:41;98820.44;;;3.76;65.59
9746;BME280;4912;50.836;12.958;2023-04-03T02:38:13;98821.59;;;3.75;65.56
9746;BME280;4912;50.836;12.958;2023-04-03T02:40:44;98827.88;;;3.71;65.60
9746;BME280;4912;50.836;12.958;2023-04-03T02:43:14;98822.03;;;3.69;65.62
9746;BME280;4912;50.836;12.958;2023-04-03T02:45:45;98825.94;;;3.68;65.57
9746;BME280;4912;50.836;12.958;2023-04-03T02:48:19;98830.28;;;3.59;65.82
9746;BME280;4912;50.836;12.958;2023-04-03T02:50:49;98834.97;;;3.55;65.99
9746;BME280;4912;50.836;12.958;2023-04-03T02:53:20;98827.19;;;3.46;65.97
9746;BME280;4912;50.836;12.958;2023-04-03T02:55:51;98830.69;;;3.47;66.01
9746;BME280;4912;50.836;12.958;2023-04-03T02:58:21;98838.91;;;3.47;66.35
9746;BME280;4912;50.836;12.958;2023-04-03T03:00:54;98836.56;;;3.45;66.31
9746;BME280;4912;50.836;12.958;2023-04-03T03:03:27;98838.53;;;3.41;66.58
9746;BME280;4912;50.836;12.958;2023-04-03T03:06:01;98830.72;;;3.36;66.73
9746;BME280;4912;50.836;12.958;2023-04-03T03:08:32;98844.03;;;3.34;67.06
9746;BME280;4912;50.836;12.958;2023-04-03T03:11:03;98834.66;;;3.28;66.96
9746;BME280;4912;50.836;12.958;2023-04-03T03:13:33;98835.81;;;3.27;67.42
9746;BME280;4912;50.836;12.958;2023-04-03T03:16:04;98846.38;;;3.25;67.25
9746;BME280;4912;50.836;12.958;2023-04-03T03:18:38;98843.25;;;3.23;67.24
9746;BME280;4912;50.836;12.958;2023-04-03T03:21:08;98843.25;;;3.23;67.33
9746;BME280;4912;50.836;12.958;2023-04-03T03:23:39;98851.88;;;3.18;67.42
9746;BME280;4912;50.836;12.958;2023-04-03T03:26:10;98855.78;;;3.17;67.64
9746;BME280;4912;50.836;12.958;2023-04-03T03:28:41;98853.44;;;3.12;67.52
9746;BME280;4912;50.836;12.958;2023-04-03T03:31:11;98862.78;;;3.07;67.60
9746;BME280;4912;50.836;12.958;2023-04-03T03:33:44;98858.53;;;2.99;67.71
9746;BME280;4912;50.836;12.958;2023-04-03T03:36:15;98861.25;;;2.99;67.87
9746;BME280;4912;50.836;12.958;2023-04-03T03:38:45;98864.38;;;2.91;67.93
9746;BME280;4912;50.836;12.958;2023-04-03T03:41:15;98858.13;;;2.86;68.21
9746;BME280;4912;50.836;12.958;2023-04-03T03:43:46;98862.81;;;2.86;68.02
9746;BME280;4912;50.836;12.958;2023-04-03T03:46:16;98867.88;;;2.80;68.34
9746;BME280;4912;50.836;12.958;2023-04-03T03:48:49;98871.78;;;2.79;68.47
9746;BME280;4912;50.836;12.958;2023-04-03T03:51:19;98867.50;;;2.75;68.54
9746;BME280;4912;50.836;12.958;2023-04-03T03:53:49;98871.38;;;2.67;68.44
9746;BME280;4912;50.836;12.958;2023-04-03T03:56:20;98872.16;;;2.67;68.57
9746;BME280;4912;50.836;12.958;2023-04-03T03:58:50;98878.44;;;2.64;68.67
9746;BME280;4912;50.836;12.958;2023-04-03T04:01:20;98881.53;;;2.59;68.99
9746;BME280;4912;50.836;12.958;2023-04-03T04:03:53;98873.34;;;2.52;68.93
9746;BME280;4912;50.836;12.958;2023-04-03T04:06:28;98877.63;;;2.46;69.03
9746;BME280;4912;50.836;12.958;2023-04-03T04:09:02;98881.50;;;2.45;69.16
9746;BME280;4912;50.836;12.958;2023-04-03T04:11:32;98886.19;;;2.41;69.12
9746;BME280;4912;50.836;12.958;2023-04-03T04:14:02;98890.06;;;2.36;69.28
9746;BME280;4912;50.836;12.958;2023-04-03T04:16:33;98885.34;;;2.30;69.38
9746;BME280;4912;50.836;12.958;2023-04-03T04:19:11;98893.94;;;2.25;69.43
9746;BME280;4912;50.836;12.958;2023-04-03T04:21:43;98890.81;;;2.23;69.61
9746;BME280;4912;50.836;12.958;2023-04-03T04:24:14;98899.81;;;2.23;69.51
9746;BME280;4912;50.836;12.958;2023-04-03T04:26:45;98901.31;;;2.14;69.93
9746;BME280;4912;50.836;12.958;2023-04-03T04:29:16;98902.09;;;2.14;70.19
9746;BME280;4912;50.836;12.958;2023-04-03T04:31:49;98901.69;;;2.09;70.11
9746;BME280;4912;50.836;12.958;2023-04-03T04:34:23;98905.56;;;2.08;70.13
9746;BME280;4912;50.836;12.958;2023-04-03T04:36:53;98904.78;;;2.00;70.34
9746;BME280;4912;50.836;12.958;2023-04-03T04:39:25;98902.44;;;2.02;70.65
9746;BME280;4912;50.836;12.958;2023-04-03T04:41:57;98912.19;;;1.99;70.71
9746;BME280;4912;50.836;12.958;2023-04-03T04:44:29;98904.38;;;1.94;71.01
9746;BME280;4912;50.836;12.958;2023-04-03T04:46:59;98911.00;;;1.93;70.94
9746;BME280;4912;50.836;12.958;2023-04-03T04:49:32;98913.72;;;2.00;70.81
9746;BME280;4912;50.836;12.958;2023-04-03T04:52:03;98918.81;;;2.02;70.69
9746;BME280;4912;50.836;12.958;2023-04-03T04:54:34;98921.16;;;2.00;71.05
9746;BME280;4912;50.836;12.958;2023-04-03T04:57:04;98921.91;;;1.97;71.16
9746;BME280;4912;50.836;12.958;2023-04-03T04:59:34;98928.16;;;1.94;71.18
9746;BME280;4912;50.836;12.958;2023-04-03T05:02:06;98922.66;;;1.90;71.28
9746;BME280;4912;50.836;12.958;2023-04-03T05:04:41;98926.97;;;1.91;71.51
9746;BME280;4912;50.836;12.958;2023-04-03T05:07:17;98935.16;;;1.91;71.16
9746;BME280;4912;50.836;12.958;2023-04-03T05:09:47;98933.63;;;1.94;71.25
9746;BME280;4912;50.836;12.958;2023-04-03T05:12:17;98932.03;;;1.96;71.29
9746;BME280;4912;50.836;12.958;2023-04-03T05:14:54;98936.72;;;1.96;71.30
9746;BME280;4912;50.836;12.958;2023-04-03T05:17:26;98938.28;;;1.93;71.11
9746;BME280;4912;50.836;12.958;2023-04-03T05:20:00;98938.66;;;1.92;71.04
9746;BME280;4912;50.836;12.958;2023-04-03T05:22:33;98940.66;;;1.98;71.19
9746;BME280;4912;50.836;12.958;2023-04-03T05:25:07;98946.84;;;1.95;71.06
9746;BME280;4912;50.836;12.958;2023-04-03T05:27:41;98951.94;;;2.00;71.12
9746;BME280;4912;50.836;12.958;2023-04-03T05:30:12;98949.22;;;2.00;71.22
9746;BME280;4912;50.836;12.958;2023-04-03T05:32:43;98955.88;;;1.99;70.79
9746;BME280;4912;50.836;12.958;2023-04-03T05:35:35;98950.03;;;2.08;70.70
9746;BME280;4912;50.836;12.958;2023-04-03T05:38:08;98957.06;;;2.09;70.58
9746;BME280;4912;50.836;12.958;2023-04-03T05:40:38;98953.97;;;2.11;70.35
9746;BME280;4912;50.836;12.958;2023-04-03T05:43:08;98959.41;;;2.14;70.48
9746;BME280;4912;50.836;12.958;2023-04-03T05:45:42;98952.78;;;2.12;70.39
9746;BME280;4912;50.836;12.958;2023-04-03T05:48:13;98961.38;;;2.14;70.19
9746;BME280;4912;50.836;12.958;2023-04-03T05:50:47;98961.41;;;2.17;70.23
9746;BME280;4912;50.836;12.958;2023-04-03T05:53:23;98961.81;;;2.26;70.34
9746;BME280;4912;50.836;12.958;2023-04-03T05:56:01;98972.00;;;2.36;69.98
9746;BME280;4912;50.836;12.958;2023-04-03T05:58:36;98967.72;;;2.35;69.33
9746;BME280;4912;50.836;12.958;2023-04-03T06:01:07;98975.88;;;2.32;69.07
9746;BME280;4912;50.836;12.958;2023-04-03T06:03:37;98983.31;;;2.35;68.95
9746;BME280;4912;50.836;12.958;2023-04-03T06:06:12;98985.28;;;2.38;68.93
9746;BME280;4912;50.836;12.958;2023-04-03T06:08:43;98986.06;;;2.42;69.01
9746;BME280;4912;50.836;12.958;2023-04-03T06:11:13;98989.22;;;2.51;69.08
9746;BME280;4912;50.836;12.958;2023-04-03T06:13:43;98989.63;;;2.53;68.40
9746;BME280;4912;50.836;12.958;2023-04-03T06:16:14;98988.47;;;2.58;68.00
9746;BME280;4912;50.836;12.958;2023-04-03T06:18:45;98975.25;;;2.70;67.54
9746;BME280;4912;50.836;12.958;2023-04-03T06:21:18;98981.47;;;2.78;67.42
9746;BME280;4912;50.836;12.958;2023-04-03T06:23:48;98982.28;;;2.89;67.27
9746;BME280;4912;50.836;12.958;2023-04-03T06:26:18;98989.34;;;3.04;67.10
9746;BME280;4912;50.836;12.958;2023-04-03T06:28:49;98988.19;;;3.05;66.02
9746;BME280;4912;50.836;12.958;2023-04-03T06:31:19;98994.81;;;2.97;66.22
9746;BME280;4912;50.836;12.958;2023-04-03T06:33:49;98990.50;;;2.93;66.55
9746;BME280;4912;50.836;12.958;2023-04-03T06:36:22;98982.69;;;2.95;66.41
9746;BME280;4912;50.836;12.958;2023-04-03T06:38:52;98997.13;;;2.95;66.04
9746;BME280;4912;50.836;12.958;2023-04-03T06:41:22;98995.22;;;2.99;65.61
9746;BME280;4912;50.836;12.958;2023-04-03T06:43:52;98995.63;;;3.12;65.80
9746;BME280;4912;50.836;12.958;2023-04-03T06:46:24;99005.38;;;3.09;65.50
9746;BME280;4912;50.836;12.958;2023-04-03T06:48:56;99010.84;;;3.09;65.16
9746;BME280;4912;50.836;12.958;2023-04-03T06:51:29;99008.88;;;3.13;65.54
9746;BME280;4912;50.836;12.958;2023-04-03T06:54:00;99013.19;;;3.25;64.91
9746;BME280;4912;50.836;12.958;2023-04-03T06:56:31;99005.78;;;3.36;64.65
9746;BME280;4912;50.836;12.958;2023-04-03T06:59:02;99014.00;;;3.43;64.07
9746;BME280;4912;50.836;12.958;2023-04-03T07:01:32;99017.50;;;3.54;63.23
9746;BME280;4912;50.836;12.958;2023-04-03T07:04:02;99017.91;;;3.49;62.27
9746;BME280;4912;50.836;12.958;2023-04-03T07:06:36;99012.81;;;3.48;62.34
9746;BME280;4912;50.836;12.958;2023-04-03T07:09:06;99021.44;;;3.57;62.68
9746;BME280;4912;50.836;12.958;2023-04-03T07:11:37;99023.75;;;3.62;62.03
9746;BME280;4912;50.836;12.958;2023-04-03T07:14:07;99027.28;;;3.62;61.86
9746;BME280;4912;50.836;12.958;2023-04-03T07:16:37;99026.50;;;3.58;61.56
9746;BME280;4912;50.836;12.958;2023-04-03T07:19:08;99041.34;;;3.50;61.51
9746;BME280;4912;50.836;12.958;2023-04-03T07:21:41;99030.81;;;3.56;61.06
9746;BME280;4912;50.836;12.958;2023-04-03T07:24:11;99028.47;;;3.68;61.53
9746;BME280;4912;50.836;12.958;2023-04-03T07:26:42;99031.19;;;3.68;60.75
9746;BME280;4912;50.836;12.958;2023-04-03T07:29:12;99032.34;;;3.78;60.60
9746;BME280;4912;50.836;12.958;2023-04-03T07:31:42;99031.56;;;3.99;60.53
9746;BME280;4912;50.836;12.958;2023-04-03T07:34:14;99034.66;;;4.15;59.20
9746;BME280;4912;50.836;12.958;2023-04-03T07:36:46;99041.69;;;4.16;58.63
9746;BME280;4912;50.836;12.958;2023-04-03T07:39:17;99044.03;;;4.07;58.14
9746;BME280;4912;50.836;12.958;2023-04-03T07:41:47;99050.72;;;4.02;58.88
9746;BME280;4912;50.836;12.958;2023-04-03T07:44:17;99050.69;;;4.09;59.21
9746;BME280;4912;50.836;12.958;2023-04-03T07:46:47;99055.72;;;4.32;58.29
9746;BME280;4912;50.836;12.958;2023-04-03T07:49:18;99054.19;;;4.35;58.34
9746;BME280;4912;50.836;12.958;2023-04-03T07:51:52;99055.75;;;4.25;57.40
9746;BME280;4912;50.836;12.958;2023-04-03T07:54:22;99059.69;;;4.21;57.40
9746;BME280;4912;50.836;12.958;2023-04-03T07:56:52;99064.38;;;4.20;57.19
9746;BME280;4912;50.836;12.958;2023-04-03T07:59:23;99064.75;;;4.29;57.65
9746;BME280;4912;50.836;12.958;2023-04-03T08:01:53;99067.06;;;4.45;57.34
9746;BME280;4912;50.836;12.958;2023-04-03T08:04:23;99063.13;;;4.53;58.10
9746;BME280;4912;50.836;12.958;2023-04-03T08:06:57;99070.91;;;4.62;58.25
9746;BME280;4912;50.836;12.958;2023-04-03T08:09:27;99063.84;;;4.68;56.89
9746;BME280;4912;50.836;12.958;2023-04-03T08:11:58;99065.75;;;4.78;57.07
9746;BME280;4912;50.836;12.958;2023-04-03T08:14:30;99069.63;;;4.94;56.46
9746;BME280;4912;50.836;12.958;2023-04-03T08:17:01;99070.41;;;4.91;56.04
9746;BME280;4912;50.836;12.958;2023-04-03T08:19:31;99072.31;;;5.05;55.49
9746;BME280;4912;50.836;12.958;2023-04-03T08:22:04;99069.59;;;4.98;55.41
9746;BME280;4912;50.836;12.958;2023-04-03T08:24:34;99068.78;;;5.60;54.44
9746;BME280;4912;50.836;12.958;2023-04-03T08:27:14;99075.84;;;5.61;53.61
9746;BME280;4912;50.836;12.958;2023-04-03T08:29:44;99064.03;;;5.71;53.95
9746;BME280;4912;50.836;12.958;2023-04-03T08:32:14;99069.78;;;5.84;53.60
9746;BME280;4912;50.836;12.958;2023-04-03T08:34:45;99071.72;;;5.94;53.49
9746;BME280;4912;50.836;12.958;2023-04-03T08:37:18;99082.34;;;5.88;53.28
9746;BME280;4912;50.836;12.958;2023-04-03T08:39:48;99084.63;;;5.97;53.30
9746;BME280;4912;50.836;12.958;2023-04-03T08:42:23;99078.22;;;6.10;52.81
9746;BME280;4912;50.836;12.958;2023-04-03T08:45:04;99076.72;;;6.02;52.75
9746;BME280;4912;50.836;12.958;2023-04-03T08:47:40;99081.53;;;6.36;52.09
9746;BME280;4912;50.836;12.958;2023-04-03T08:50:13;99082.19;;;6.47;51.47
9746;BME280;4912;50.836;12.958;2023-04-03T08:52:51;99083.84;;;6.37;51.57
9746;BME280;4912;50.836;12.958;2023-04-03T08:55:24;99076.16;;;6.22;51.68
9746;BME280;4912;50.836;12.958;2023-04-03T08:57:58;99090.81;;;6.08;51.96
9746;BME280;4912;50.836;12.958;2023-04-03T09:00:32;99094.47;;;5.91;51.49
9746;BME280;4912;50.836;12.958;2023-04-03T09:03:10;99091.13;;;6.13;52.48
9746;BME280;4912;50.836;12.958;2023-04-03T09:05:44;99089.16;;;6.18;53.56
9746;BME280;4912;50.836;12.958;2023-04-03T09:08:21;99097.75;;;6.23;53.59
9746;BME280;4912;50.836;12.958;2023-04-03T09:10:57;99094.38;;;6.42;53.28
9746;BME280;4912;50.836;12.958;2023-04-03T09:13:31;99091.13;;;6.54;52.36
9746;BME280;4912;50.836;12.958;2023-04-03T09:16:06;99102.78;;;6.66;51.50
9746;BME280;4912;50.836;12.958;2023-04-03T09:18:50;99100.28;;;6.78;51.01
9746;BME280;4912;50.836;12.958;2023-04-03T09:21:29;99105.72;;;6.85;50.56
9746;BME280;4912;50.836;12.958;2023-04-03T09:24:05;99099.81;;;6.83;50.83
9746;BME280;4912;50.836;12.958;2023-04-03T09:26:36;99108.22;;;6.73;49.95
9746;BME280;4912;50.836;12.958;2023-04-03T09:29:14;99111.91;;;6.93;50.17
9746;BME280;4912;50.836;12.958;2023-04-03T09:31:48;99111.56;;;7.21;49.51
9746;BME280;4912;50.836;12.958;2023-04-03T09:34:20;99113.72;;;7.07;48.95
9746;BME280;4912;50.836;12.958;2023-04-03T09:36:53;99107.13;;;7.01;48.89
9746;BME280;4912;50.836;12.958;2023-04-03T09:39:28;99110.59;;;7.05;48.51
9746;BME280;4912;50.836;12.958;2023-04-03T09:42:00;99106.28;;;7.04;48.68
9746;BME280;4912;50.836;12.958;2023-04-03T09:44:32;99109.19;;;7.20;49.54
9746;BME280;4912;50.836;12.958;2023-04-03T09:47:17;99105.88;;;7.35;49.40
9746;BME280;4912;50.836;12.958;2023-04-03T09:49:48;99110.75;;;7.51;47.75
9746;BME280;4912;50.836;12.958;2023-04-03T09:52:19;99109.53;;;7.79;46.82
9746;BME280;4912;50.836;12.958;2023-04-03T09:54:55;99091.25;;;11.34;41.25
9746;BME280;4912;50.836;12.958;2023-04-03T09:57:37;99092.81;;;11.73;37.91
9746;BME280;4912;50.836;12.958;2023-04-03T10:00:10;99094.06;;;12.31;36.75
9746;BME280;4912;50.836;12.958;2023-04-03T10:02:53;99089.63;;;11.74;37.75
9746;BME280;4912;50.836;12.958;2023-04-03T10:05:27;99080.00;;;14.06;34.95
9746;BME280;4912;50.836;12.958;2023-04-03T10:08:09;99068.34;;;14.84;33.00
9746;BME280;4912;50.836;12.958;2023-04-03T10:10:46;99061.84;;;16.13;31.63
9746;BME280;4912;50.836;12.958;2023-04-03T10:13:19;99063.84;;;14.77;36.94
9746;BME280;4912;50.836;12.958;2023-04-03T10:15:51;99058.25;;;14.95;35.03
9746;BME280;4912;50.836;12.958;2023-04-03T10:18:30;99064.13;;;14.97;33.60
9746;BME280;4912;50.836;12.958;2023-04-03T10:21:04;99062.91;;;14.34;37.92
9746;BME280;4912;50.836;12.958;2023-04-03T10:23:48;99054.16;;;13.16;33.89
9746;BME280;4912;50.836;12.958;2023-04-03T10:26:26;99062.31;;;12.32;34.39
9746;BME280;4912;50.836;12.958;2023-04-03T10:29:02;99055.03;;;13.75;33.77
9746;BME280;4912;50.836;12.958;2023-04-03T10:31:41;99044.94;;;13.19;34.01
9746;BME280;4912;50.836;12.958;2023-04-03T10:34:18;99054.47;;;12.31;35.34
9746;BME280;4912;50.836;12.958;2023-04-03T10:36:53;99057.34;;;11.42;35.38
9746;BME280;4912;50.836;12.958;2023-04-03T10:39:28;99055.13;;;10.71;35.71
9746;BME280;4912;50.836;12.958;2023-04-03T10:42:05;99054.34;;;10.09;36.51
9746;BME280;4912;50.836;12.958;2023-04-03T10:44:50;99055.16;;;9.61;38.32
9746;BME280;4912;50.836;12.958;2023-04-03T10:47:27;99057.47;;;9.30;40.29
9746;BME280;4912;50.836;12.958;2023-04-03T10:50:09;99051.97;;;9.10;39.15
9746;BME280;4912;50.836;12.958;2023-04-03T10:52:51;99055.34;;;9.54;39.14
9746;BME280;4912;50.836;12.958;2023-04-03T10:55:30;99051.34;;;11.82;36.75
9746;BME280;4912;50.836;12.958;2023-04-03T10:58:06;99048.09;;;13.79;34.53
9746;BME280;4912;50.836;12.958;2023-04-03T11:00:45;99037.00;;;16.15;32.59
9746;BME280;4912;50.836;12.958;2023-04-03T11:03:22;99024.50;;;17.81;28.50
9746;BME280;4912;50.836;12.958;2023-04-03T11:06:01;99026.81;;;17.18;27.55
9746;BME280;4912;50.836;12.958;2023-04-03T11:08:33;99027.84;;;15.90;28.21
9746;BME280;4912;50.836;12.958;2023-04-03T11:11:06;99014.59;;;15.01;29.19
9746;BME280;4912;50.836;12.958;2023-04-03T11:13:43;99024.25;;;15.99;29.85
9746;BME280;4912;50.836;12.958;2023-04-03T11:16:17;99014.75;;;16.83;28.58
9746;BME280;4912;50.836;12.958;2023-04-03T11:18:52;99014.66;;;15.25;29.25
9746;BME280;4912;50.836;12.958;2023-04-03T11:21:26;99022.06;;;14.13;31.10
9746;BME280;4912;50.836;12.958;2023-04-03T11:23:58;99019.19;;;13.06;31.22
9746;BME280;4912;50.836;12.958;2023-04-03T11:26:29;99025.22;;;12.39;32.72
9746;BME280;4912;50.836;12.958;2023-04-03T11:29:06;99028.97;;;11.76;33.41
9746;BME280;4912;50.836;12.958;2023-04-03T11:31:50;99024.41;;;11.32;34.37
9746;BME280;4912;50.836;12.958;2023-04-03T11:34:33;99027.72;;;11.01;35.28
9746;BME280;4912;50.836;12.958;2023-04-03T11:37:11;99020.72;;;10.55;34.41
9746;BME280;4912;50.836;12.958;2023-04-03T11:39:47;99011.81;;;10.35;35.25
9746;BME280;4912;50.836;12.958;2023-04-03T11:42:28;99009.56;;;11.00;35.21
9746;BME280;4912;50.836;12.958;2023-04-03T11:45:22;99002.78;;;13.61;32.74
9746;BME280;4912;50.836;12.958;2023-04-03T11:48:05;98996.34;;;12.80;32.27
9746;BME280;4912;50.836;12.958;2023-04-03T11:50:50;98991.00;;;11.86;32.69
9746;BME280;4912;50.836;12.958;2023-04-03T11:53:31;99003.47;;;11.05;33.41
9746;BME280;4912;50.836;12.958;2023-04-03T11:56:03;99002.06;;;10.59;35.00
9746;BME280;4912;50.836;12.958;2023-04-03T12:01:48;98996.63;;;10.11;36.34
9746;BME280;4912;50.836;12.958;2023-04-03T12:04:19;98990.34;;;10.39;35.95
9746;BME280;4912;50.836;12.958;2023-04-03T12:12:58;98988.22;;;10.14;36.23
9746;BME280;4912;50.836;12.958;2023-04-03T12:24:30;98979.88;;;10.47;34.12
9746;BME280;4912;50.836;12.958;2023-04-03T12:27:02;98982.13;;;11.78;32.88
9746;BME280;4912;50.836;12.958;2023-04-03T12:29:36;98971.97;;;15.52;29.67
9746;BME280;4912;50.836;12.958;2023-04-03T12:32:12;98964.56;;;17.93;27.18
9746;BME280;4912;50.836;12.958;2023-04-03T12:35:01;98956.59;;;19.72;24.01
9746;BME280;4912;50.836;12.958;2023-04-03T12:37:40;98950.25;;;18.77;23.95
9746;BME280;4912;50.836;12.958;2023-04-03T12:40:21;98973.00;;;16.26;25.79
9746;BME280;4912;50.836;12.958;2023-04-03T12:43:08;98971.03;;;15.04;26.97
9746;BME280;4912;50.836;12.958;2023-04-03T12:45:50;98965.72;;;13.91;27.84
9746;BME280;4912;50.836;12.958;2023-04-03T12:48:22;98969.69;;;13.13;28.50
9746;BME280;4912;50.836;12.958;2023-04-03T12:50:58;98966.44;;;12.53;29.63
9746;BME280;4912;50.836;12.958;2023-04-03T12:53:29;98969.63;;;12.08;30.37
9746;BME280;4912;50.836;12.958;2023-04-03T12:58:52;98970.28;;;12.12;31.71
9746;BME280;4912;50.836;12.958;2023-04-03T13:01:24;98974.13;;;11.93;32.09
9746;BME280;4912;50.836;12.958;2023-04-03T13:03:56;98968.66;;;11.42;32.22
9746;BME280;4912;50.836;12.958;2023-04-03T13:06:30;98972.97;;;10.93;32.80
9746;BME280;4912;50.836;12.958;2023-04-03T13:09:03;98972.91;;;10.55;33.61
9746;BME280;4912;50.836;12.958;2023-04-03T13:11:34;98968.41;;;10.32;33.86
9746;BME280;4912;50.836;12.958;2023-04-03T13:14:14;98971.63;;;10.14;34.51
9746;BME280;4912;50.836;12.958;2023-04-03T13:16:52;98971.06;;;10.07;33.89
9746;BME280;4912;50.836;12.958;2023-04-03T13:19:24;98977.63;;;10.13;34.39
9746;BME280;4912;50.836;12.958;2023-04-03T13:22:00;98961.56;;;12.66;32.21
9746;BME280;4912;50.836;12.958;2023-04-03T13:24:33;98961.34;;;12.83;31.85
9746;BME280;4912;50.836;12.958;2023-04-03T13:27:05;98960.22;;;12.49;31.78
9746;BME280;4912;50.836;12.958;2023-04-03T13:29:36;98954.25;;;11.95;32.33
9746;BME280;4912;50.836;12.958;2023-04-03T13:32:07;98963.56;;;11.41;31.79
9746;BME280;4912;50.836;12.958;2023-04-03T13:34:44;98966.00;;;10.88;32.49
9746;BME280;4912;50.836;12.958;2023-04-03T13:37:24;98959.41;;;10.57;32.72
9746;BME280;4912;50.836;12.958;2023-04-03T13:39:56;98947.75;;;10.37;33.17
9746;BME280;4912;50.836;12.958;2023-04-03T13:42:28;98948.31;;;10.15;33.68
9746;BME280;4912;50.836;12.958;2023-04-03T13:45:09;98949.16;;;10.29;34.62
9746;BME280;4912;50.836;12.958;2023-04-03T13:47:41;98953.25;;;10.65;33.67
9746;BME280;4912;50.836;12.958;2023-04-03T13:50:14;98947.41;;;10.35;33.84
9746;BME280;4912;50.836;12.958;2023-04-03T13:52:49;98951.97;;;10.12;33.80
9746;BME280;4912;50.836;12.958;2023-04-03T13:55:23;98947.00;;;9.91;34.10
9746;BME280;4912;50.836;12.958;2023-04-03T13:57:56;98943.66;;;9.67;34.37
9746;BME280;4912;50.836;12.958;2023-04-03T14:00:29;98941.16;;;9.73;35.15
9746;BME280;4912;50.836;12.958;2023-04-03T14:03:07;98942.66;;;9.90;34.54
9746;BME280;4912;50.836;12.958;2023-04-03T14:05:42;98934.00;;;10.04;34.78
9746;BME280;4912;50.836;12.958;2023-04-03T14:08:15;98944.41;;;9.84;34.94
9746;BME280;4912;50.836;12.958;2023-04-03T14:10:58;98939.19;;;9.57;35.47
9746;BME280;4912;50.836;12.958;2023-04-03T14:13:29;98942.75;;;9.41;35.91